createdAt,value
2019-02-11T08:43:28.793Z,4.50
2019-02-11T08:49:54.513Z,6.30
2019-02-11T08:52:31.680Z,6.10
2019-02-11T08:55:11.495Z,5.50
2019-02-11T08:57:47.695Z,4.90
2019-02-11T09:00:23.987Z,4.50
2019-02-11T09:03:01.761Z,4.20
2019-02-11T09:05:37.945Z,4.00
2019-02-11T09:08:15.692Z,4.00
2019-02-11T09:11:29.611Z,3.90
2019-02-11T09:14:05.881Z,3.80
2019-02-11T09:16:42.103Z,3.60
2019-02-11T09:19:18.441Z,3.60
2019-02-11T09:21:56.269Z,3.50
2019-02-11T09:24:32.517Z,3.40
2019-02-11T09:27:10.357Z,3.20
2019-02-11T09:29:48.014Z,3.20
2019-02-11T09:32:31.554Z,3.10
2019-02-11T09:35:08.473Z,3.10
2019-02-11T09:37:47.069Z,3.00
2019-02-11T09:40:23.711Z,3.00
2019-02-11T09:46:24.249Z,2.80
2019-02-11T09:49:00.595Z,2.80
2019-02-11T09:51:44.241Z,2.90
2019-02-11T09:54:22.124Z,2.80
2019-02-11T09:56:58.391Z,2.80
2019-02-11T09:59:36.258Z,2.80
2019-02-11T10:02:15.211Z,2.80
2019-02-11T10:04:53.086Z,2.70
2019-02-11T10:07:29.365Z,2.80
2019-02-11T10:13:44.694Z,2.80
2019-02-11T10:16:22.440Z,2.70
2019-02-11T10:18:59.922Z,2.80
2019-02-11T10:21:36.270Z,2.70
2019-02-11T10:24:14.128Z,2.70
2019-02-11T10:26:50.998Z,2.70
2019-02-11T10:30:04.473Z,2.70
2019-02-11T10:36:08.020Z,2.70
2019-02-11T10:38:45.891Z,2.70
2019-02-11T10:41:24.808Z,2.70
2019-02-11T10:44:03.603Z,2.80
2019-02-11T10:46:41.035Z,2.80
2019-02-11T10:49:17.295Z,2.90
2019-02-11T10:52:00.845Z,2.90
2019-02-11T10:54:40.753Z,2.90
2019-02-11T11:00:56.863Z,3.00
2019-02-11T11:03:33.117Z,2.90
2019-02-11T11:06:10.883Z,2.80
2019-02-11T11:08:47.217Z,2.90
2019-02-11T11:11:25.168Z,2.80
2019-02-11T11:14:11.691Z,2.80
2019-02-11T11:16:49.852Z,2.80
2019-02-11T11:19:25.784Z,2.80
2019-02-11T11:22:04.921Z,2.70
2019-02-11T11:24:42.665Z,2.80
2019-02-11T11:27:47.700Z,2.80
2019-02-11T11:30:23.998Z,2.80
2019-02-11T11:33:01.645Z,2.80
2019-02-11T11:35:37.900Z,2.80
2019-02-11T11:38:14.746Z,2.70
2019-02-11T11:40:50.988Z,2.70
2019-02-11T11:43:27.272Z,2.70
2019-02-11T11:46:03.608Z,2.70
2019-02-11T11:54:08.643Z,2.60
2019-02-11T11:56:44.749Z,2.50
2019-02-11T11:59:37.123Z,2.40
2019-02-11T12:02:16.019Z,2.40
2019-02-11T12:04:51.154Z,2.50
2019-02-11T12:07:27.305Z,2.40
2019-02-11T12:10:03.520Z,2.50
2019-02-11T12:12:39.779Z,2.50
2019-02-11T12:15:35.847Z,2.50
2019-02-11T12:18:12.302Z,2.50
2019-02-11T12:20:48.473Z,2.70
2019-02-11T12:23:24.818Z,2.90
2019-02-11T12:26:00.993Z,3.10
2019-02-11T12:28:37.217Z,3.30
2019-02-11T12:31:13.452Z,3.60
2019-02-11T12:33:49.665Z,3.90
2019-02-11T12:36:25.928Z,4.20
2019-02-11T12:39:02.085Z,4.30
2019-02-11T12:41:38.327Z,4.40
2019-02-11T12:44:24.713Z,4.30
2019-02-11T12:47:13.378Z,4.20
2019-02-11T12:49:38.522Z,4.10
2019-02-11T12:52:15.939Z,4.00
2019-02-11T12:54:52.088Z,4.00
2019-02-11T12:57:28.272Z,3.90
2019-02-11T13:00:10.267Z,3.90
2019-02-11T13:02:46.516Z,3.90
2019-02-11T13:05:40.232Z,4.00
2019-02-11T13:08:00.622Z,4.00
2019-02-11T13:10:36.886Z,4.10
2019-02-11T13:13:12.947Z,4.10
2019-02-11T13:16:00.873Z,4.10
2019-02-11T13:18:27.230Z,4.00
2019-02-11T13:21:03.646Z,4.00
2019-02-11T13:23:39.789Z,3.90
2019-02-11T13:26:15.893Z,3.80
2019-02-11T13:28:51.996Z,3.80
2019-02-11T13:31:28.171Z,3.70
2019-02-11T13:34:04.434Z,3.50
2019-02-11T13:36:40.574Z,3.40
2019-02-11T13:39:16.692Z,3.40
2019-02-11T13:41:52.928Z,3.30
2019-02-11T13:44:29.191Z,3.30
2019-02-11T13:47:05.493Z,3.30
2019-02-11T13:49:46.074Z,3.40
2019-02-11T13:52:19.523Z,3.20
2019-02-11T13:54:55.737Z,3.20
2019-02-11T13:57:31.979Z,3.30
2019-02-11T14:00:20.542Z,3.40
2019-02-11T14:03:02.659Z,3.40
2019-02-11T14:05:39.774Z,3.50
2019-02-11T14:08:15.941Z,3.50
2019-02-11T14:10:52.146Z,3.50
2019-02-11T14:13:28.517Z,3.50
2019-02-11T14:16:04.722Z,3.50
2019-02-11T14:18:40.967Z,3.60
2019-02-11T14:21:17.205Z,3.60
2019-02-11T14:23:53.448Z,3.60
2019-02-11T14:26:29.599Z,3.70
2019-02-11T14:29:05.879Z,3.80
2019-02-11T14:31:42.073Z,3.80
2019-02-11T14:34:18.230Z,3.90
2019-02-11T14:37:02.971Z,3.80
2019-02-11T14:39:39.135Z,3.90
2019-02-11T14:42:15.688Z,3.80
2019-02-11T14:44:52.186Z,6.10
2019-02-11T14:47:28.378Z,4.30
2019-02-11T14:50:05.811Z,3.80
2019-02-11T14:52:42.588Z,3.60
2019-02-11T14:55:18.662Z,3.70
2019-02-11T14:57:54.680Z,3.60
2019-02-11T15:00:30.861Z,3.60
2019-02-11T15:03:07.080Z,3.60
2019-02-11T15:05:43.198Z,3.60
2019-02-11T15:08:19.411Z,3.80
2019-02-11T15:10:55.688Z,3.80
2019-02-11T15:13:31.881Z,3.80
2019-02-11T15:16:08.091Z,3.80
2019-02-11T15:18:44.330Z,3.80
2019-02-11T15:21:20.452Z,3.80
2019-02-11T15:23:56.665Z,3.80
2019-02-11T15:26:32.909Z,3.80
2019-02-11T15:29:09.044Z,3.90
2019-02-11T15:31:45.310Z,3.90
2019-02-11T15:34:21.480Z,3.90
2019-02-11T15:36:57.660Z,3.90
2019-02-11T15:39:33.736Z,3.90
2019-02-11T15:42:10.817Z,4.00
2019-02-11T15:44:47.026Z,4.10
2019-02-11T15:47:24.361Z,4.10
2019-02-11T15:50:11.739Z,4.10
2019-02-11T15:52:47.919Z,4.00
2019-02-11T15:55:24.080Z,4.00
2019-02-11T15:58:00.352Z,3.90
2019-02-11T16:00:36.609Z,3.80
2019-02-11T16:03:12.725Z,3.80
2019-02-11T16:05:49.988Z,3.70
2019-02-11T16:08:26.185Z,3.60
2019-02-11T16:11:02.447Z,3.50
2019-02-11T16:13:38.552Z,3.40
2019-02-11T16:16:14.821Z,3.30
2019-02-11T16:18:51.976Z,3.30
2019-02-11T16:21:28.171Z,3.20
2019-02-11T16:24:09.990Z,3.20
2019-02-11T16:26:46.185Z,3.20
2019-02-11T16:29:22.278Z,3.00
2019-02-11T16:32:03.018Z,3.00
2019-02-11T16:34:39.192Z,3.00
2019-02-11T16:37:15.357Z,3.00
2019-02-11T16:39:51.446Z,2.80
2019-02-11T16:42:27.691Z,2.70
2019-02-11T16:45:04.236Z,2.70
2019-02-11T16:47:40.388Z,2.70
2019-02-11T16:50:16.565Z,2.60
2019-02-11T16:52:52.734Z,2.70
2019-02-11T16:55:28.948Z,2.70
2019-02-11T16:58:05.186Z,2.70
2019-02-11T17:00:41.405Z,2.70
2019-02-11T17:03:18.589Z,2.70
2019-02-11T17:05:54.743Z,2.70
2019-02-11T17:08:31.060Z,2.70
2019-02-11T17:11:07.303Z,2.60
2019-02-11T17:13:43.406Z,2.60
2019-02-11T17:16:25.135Z,2.60
2019-02-11T17:19:08.817Z,2.60
2019-02-11T17:21:47.018Z,2.60
2019-02-11T17:24:23.198Z,2.60
2019-02-11T17:26:59.361Z,2.50
2019-02-11T17:29:35.581Z,2.50
2019-02-11T17:32:11.836Z,2.50
2019-02-11T17:34:47.911Z,2.50
2019-02-11T17:37:24.029Z,2.60
2019-02-11T17:40:00.293Z,2.60
2019-02-11T17:42:36.495Z,2.60
2019-02-11T17:45:15.220Z,2.60
2019-02-11T17:47:51.407Z,2.60
2019-02-11T17:50:27.477Z,2.70
2019-02-11T17:53:13.017Z,2.70
2019-02-11T17:55:49.248Z,2.70
2019-02-11T17:58:25.505Z,2.60
2019-02-11T18:01:01.793Z,2.60
2019-02-11T18:03:38.033Z,2.50
2019-02-11T18:06:14.181Z,2.50
2019-02-11T18:08:50.365Z,2.50
2019-02-11T18:11:26.526Z,2.50
2019-02-11T18:14:02.777Z,2.60
2019-02-11T18:16:38.979Z,2.60
2019-02-11T18:19:15.173Z,2.60
2019-02-11T18:21:51.328Z,2.60
2019-02-11T18:24:27.450Z,2.60
2019-02-11T18:27:03.675Z,2.60
2019-02-11T18:29:40.007Z,2.60
2019-02-11T18:32:16.284Z,2.50
2019-02-11T18:34:52.405Z,2.60
2019-02-11T18:37:28.562Z,2.50
2019-02-11T18:40:07.217Z,2.50
2019-02-11T18:42:43.405Z,2.50
2019-02-11T18:45:19.623Z,2.40
2019-02-11T18:47:55.812Z,2.40
2019-02-11T18:50:31.965Z,2.30
2019-02-11T18:53:08.225Z,2.30
2019-02-11T18:55:44.367Z,2.20
2019-02-11T18:58:20.612Z,2.20
2019-02-11T19:00:56.859Z,2.10
2019-02-11T19:03:43.810Z,2.00
2019-02-11T19:06:20.028Z,1.90
2019-02-11T19:08:56.222Z,1.80
2019-02-11T19:11:32.371Z,1.80
2019-02-11T19:14:08.562Z,1.80
2019-02-11T19:16:44.740Z,1.70
2019-02-11T19:19:20.813Z,1.70
2019-02-11T19:21:56.997Z,1.60
2019-02-11T19:24:33.104Z,1.60
2019-02-11T19:27:09.283Z,1.60
2019-02-11T19:29:45.421Z,1.50
2019-02-11T19:32:21.606Z,1.50
2019-02-11T19:34:58.669Z,1.40
2019-02-11T19:37:34.845Z,1.30
2019-02-11T19:40:15.976Z,1.30
2019-02-11T19:42:52.222Z,1.30
2019-02-11T19:45:31.555Z,1.20
2019-02-11T19:48:07.620Z,1.20
2019-02-11T19:50:43.645Z,1.20
2019-02-11T19:53:33.802Z,1.20
2019-02-11T19:56:10.013Z,1.20
2019-02-11T19:58:46.191Z,1.10
2019-02-11T20:01:22.424Z,1.20
2019-02-11T20:04:07.027Z,1.10
2019-02-11T20:06:36.316Z,1.10
2019-02-11T20:09:12.556Z,1.10
2019-02-11T20:11:48.860Z,1.10
2019-02-11T20:14:25.040Z,1.10
2019-02-11T20:17:01.214Z,1.10
2019-02-11T20:19:37.416Z,1.10
2019-02-11T20:22:13.682Z,1.00
2019-02-11T20:24:49.871Z,1.00
2019-02-11T20:27:26.051Z,1.00
2019-02-11T20:30:02.201Z,1.00
2019-02-11T20:32:38.430Z,1.00
2019-02-11T20:35:31.306Z,1.00
2019-02-11T20:38:07.486Z,1.00
2019-02-11T20:40:49.545Z,1.10
2019-02-11T20:43:25.793Z,1.10
2019-02-11T20:46:01.951Z,1.20
2019-02-11T20:48:38.122Z,1.20
2019-02-11T20:51:14.339Z,1.30
2019-02-11T20:53:50.447Z,1.30
2019-02-11T20:56:26.742Z,1.30
2019-02-11T20:59:02.959Z,1.30
2019-02-11T21:01:39.119Z,1.30
2019-02-11T21:04:15.318Z,1.30
2019-02-11T21:06:51.478Z,1.40
2019-02-11T21:09:28.579Z,1.40
2019-02-11T21:12:04.708Z,1.40
2019-02-11T21:14:40.822Z,1.40
2019-02-11T21:17:16.962Z,1.40
2019-02-11T21:19:53.094Z,1.40
2019-02-11T21:22:29.306Z,1.50
2019-02-11T21:25:07.863Z,1.50
2019-02-11T21:27:44.087Z,1.50
2019-02-11T21:30:20.358Z,1.60
2019-02-11T21:32:56.610Z,1.50
2019-02-11T21:35:32.846Z,1.50
2019-02-11T21:38:14.125Z,1.50
2019-02-11T21:40:50.358Z,1.60
2019-02-11T21:43:26.525Z,1.60
2019-02-11T21:46:02.606Z,1.60
2019-02-11T21:48:38.791Z,1.60
2019-02-11T21:51:14.879Z,1.60
2019-02-11T21:53:51.062Z,1.60
2019-02-11T21:56:27.243Z,1.60
2019-02-11T21:59:03.432Z,1.60
2019-02-11T22:01:39.509Z,1.60
2019-02-11T22:04:15.702Z,1.60
2019-02-11T22:06:51.921Z,1.70
2019-02-11T22:09:28.168Z,1.70
2019-02-11T22:12:04.415Z,1.70
2019-02-11T22:14:40.665Z,1.70
2019-02-11T22:17:16.880Z,1.70
2019-02-11T22:19:52.991Z,1.60
2019-02-11T22:22:29.208Z,1.70
2019-02-11T22:25:07.369Z,1.70
2019-02-11T22:27:43.619Z,1.70
2019-02-11T22:30:21.561Z,1.70
2019-02-11T22:32:57.839Z,1.70
2019-02-11T22:35:33.965Z,1.70
2019-02-11T22:38:12.138Z,1.70
2019-02-11T22:40:48.397Z,1.70
2019-02-11T22:43:24.509Z,1.70
2019-02-11T22:46:00.657Z,1.70
2019-02-11T22:48:36.766Z,1.70
2019-02-11T22:51:12.990Z,1.70
2019-02-11T22:53:49.169Z,1.70
2019-02-11T22:56:25.320Z,1.70
2019-02-11T22:59:01.518Z,1.70
2019-02-11T23:01:37.827Z,1.70
2019-02-11T23:04:13.992Z,1.70
2019-02-11T23:06:50.206Z,1.70
2019-02-11T23:09:42.483Z,1.70
2019-02-11T23:12:18.553Z,1.80
2019-02-11T23:14:54.722Z,1.70
2019-02-11T23:17:30.946Z,1.70
2019-02-11T23:20:08.088Z,1.70
2019-02-11T23:22:44.240Z,1.70
2019-02-11T23:25:20.430Z,1.70
2019-02-11T23:27:56.571Z,1.70
2019-02-11T23:30:32.848Z,1.80
2019-02-11T23:33:08.998Z,1.80
2019-02-11T23:35:45.113Z,1.70
2019-02-11T23:38:23.330Z,1.70
2019-02-11T23:40:59.585Z,1.70
2019-02-11T23:43:35.744Z,1.70
2019-02-11T23:46:12.052Z,1.70
2019-02-11T23:48:48.263Z,1.70
2019-02-11T23:51:27.225Z,1.70
2019-02-11T23:54:03.332Z,1.80
2019-02-11T23:56:39.461Z,1.70
2019-02-11T23:59:15.712Z,1.70
